Time;durP1;ratioP1;P1;durP2;ratioP2;P2;SDS_P1;SDS_P2;PMS_P1;PMS_P2;Temp;Humidity;BMP_temperature;BMP_pressure;BME280_temperature;BME280_humidity;BME280_pressure;Samples;Min_cycle;Max_cycle;Signal;HPM_P1;HPM_P2
2021/09/26 00:00:07;;;;;;;14.30;9.25;;;;;;;17.70;59.93;101330.38;4966579;28;114017;-63
2021/09/26 00:02:38;;;;;;;15.57;9.45;;;;;;;17.71;60.07;101332.09;4965425;28;124778;-63
2021/09/26 00:05:07;;;;;;;14.45;8.88;;;;;;;17.74;60.05;101331.03;4956939;28;124703;-62
2021/09/26 00:07:35;;;;;;;15.65;9.40;;;;;;;17.76;60.03;101333.59;4970042;28;114099;-63
2021/09/26 00:10:05;;;;;;;17.98;9.52;;;;;;;17.77;60.21;101324.63;4952305;28;113251;-62
2021/09/26 00:12:33;;;;;;;16.83;9.55;;;;;;;17.77;60.39;101329.97;4966042;28;124077;-63
2021/09/26 00:15:01;;;;;;;16.27;9.52;;;;;;;17.79;60.44;101336.09;4971655;28;123621;-63
2021/09/26 00:17:28;;;;;;;16.33;9.55;;;;;;;17.80;60.46;101329.75;4970128;28;114537;-63
2021/09/26 00:19:57;;;;;;;20.33;10.25;;;;;;;17.81;60.68;101331.47;4968375;28;113970;-62
2021/09/26 00:22:24;;;;;;;16.80;9.43;;;;;;;17.81;60.47;101336.84;4964435;28;123936;-62
2021/09/26 00:24:51;;;;;;;15.48;9.27;;;;;;;17.83;60.50;101340.28;4965394;28;123588;-62
2021/09/26 00:27:19;;;;;;;15.38;9.52;;;;;;;17.82;60.66;101327.81;4968539;28;116195;-63
2021/09/26 00:29:46;;;;;;;16.45;9.77;;;;;;;17.83;60.71;101335.75;4942500;28;114124;-63
2021/09/26 00:32:13;;;;;;;16.85;9.35;;;;;;;17.85;60.57;101327.66;4955258;28;122989;-63
2021/09/26 00:34:40;;;;;;;14.27;8.98;;;;;;;17.86;60.64;101332.06;4967178;28;123668;-63
2021/09/26 00:37:08;;;;;;;16.90;9.00;;;;;;;17.88;60.53;101332.81;4970898;28;113907;-63
2021/09/26 00:39:35;;;;;;;16.40;8.77;;;;;;;17.86;60.41;101324.03;4965644;28;114288;-63
2021/09/26 00:42:02;;;;;;;14.18;9.02;;;;;;;17.86;60.28;101318.66;4952249;28;122909;-62
2021/09/26 00:44:29;;;;;;;15.93;9.02;;;;;;;17.83;60.43;101322.38;4967889;28;123941;-62
2021/09/26 00:46:57;;;;;;;14.43;8.75;;;;;;;17.80;60.30;101314.56;4949626;28;113158;-64
2021/09/26 00:49:24;;;;;;;14.65;9.10;;;;;;;17.77;60.36;101316.59;4948888;28;113085;-62
2021/09/26 00:51:51;;;;;;;13.00;8.32;;;;;;;17.71;60.38;101310.66;4967727;28;124392;-62
2021/09/26 00:54:19;;;;;;;11.52;7.75;;;;;;;17.67;60.22;101314.53;4970694;28;123715;-62
2021/09/26 00:56:50;;;;;;;13.68;8.50;;;;;;;17.63;60.31;101313.00;4967006;28;114614;-62
2021/09/26 00:59:19;;;;;;;14.65;8.48;;;;;;;17.60;60.45;101313.22;4962382;28;114771;-62
2021/09/26 01:01:48;;;;;;;16.23;8.90;;;;;;;17.60;60.47;101323.94;4965305;28;124139;-63
2021/09/26 01:04:17;;;;;;;13.88;8.73;;;;;;;17.58;60.47;101319.66;4970044;28;123750;-63
2021/09/26 01:06:54;;;;;;;16.63;8.98;;;;;;;17.54;60.81;101313.63;4966485;28;114216;-63
2021/09/26 01:09:50;;;;;;;14.90;8.68;;;;;;;17.52;60.77;101323.59;4968807;28;114152;-63
2021/09/26 01:12:42;;;;;;;14.32;8.40;;;;;;;17.51;60.79;101316.50;4968240;28;124140;-64
2021/09/26 01:15:31;;;;;;;12.65;8.13;;;;;;;17.52;60.59;101310.19;4951191;28;122705;-63
2021/09/26 01:18:04;;;;;;;16.05;9.50;;;;;;;17.53;60.77;101311.91;4963299;28;115834;-63
2021/09/26 01:20:59;;;;;;;14.40;8.48;;;;;;;17.52;60.50;101304.84;4971622;28;115078;-63
2021/09/26 01:24:06;;;;;;;14.90;8.35;;;;;;;17.52;60.59;101310.19;4966454;28;124381;-63
2021/09/26 01:27:12;;;;;;;13.15;8.57;;;;;;;17.52;60.63;101310.19;4970516;28;124438;-63
2021/09/26 01:29:39;;;;;;;16.35;8.85;;;;;;;17.51;60.66;101308.47;4967872;28;114149;-63
2021/09/26 01:32:08;;;;;;;14.15;8.15;;;;;;;17.50;60.68;101296.06;4964639;28;114113;-63
2021/09/26 01:34:39;;;;;;;14.20;9.07;;;;;;;17.49;60.72;101294.31;4970969;28;124436;-63
2021/09/26 01:37:15;;;;;;;13.35;8.27;;;;;;;17.50;60.61;101301.41;4964910;28;124309;-63
2021/09/26 01:39:46;;;;;;;14.48;8.55;;;;;;;17.51;60.73;101297.75;4964515;28;114410;-63
2021/09/26 01:42:25;;;;;;;13.57;8.40;;;;;;;17.51;60.59;101292.41;4968070;28;114093;-63
2021/09/26 01:45:10;;;;;;;13.68;8.40;;;;;;;17.51;60.76;101303.13;4966164;28;123851;-63
2021/09/26 01:47:43;;;;;;;15.10;8.13;;;;;;;17.50;60.69;101307.63;4966539;28;124247;-63
2021/09/26 01:50:11;;;;;;;12.18;7.82;;;;;;;17.51;60.90;101308.47;4964235;28;114628;-63
2021/09/26 01:52:44;;;;;;;13.43;8.40;;;;;;;17.50;60.86;101296.91;4966724;28;113879;-63
2021/09/26 01:55:11;;;;;;;15.48;8.40;;;;;;;17.50;60.84;101296.06;4967770;28;123916;-62
2021/09/26 01:57:40;;;;;;;12.68;8.10;;;;;;;17.47;60.78;101291.75;4965498;28;123965;-63
2021/09/26 02:00:10;;;;;;;15.02;8.60;;;;;;;17.45;60.75;101298.16;4944503;28;113717;-62
2021/09/26 02:02:42;;;;;;;14.27;8.98;;;;;;;17.40;60.76;101289.59;4968823;28;114338;-62
2021/09/26 02:05:11;;;;;;;12.77;8.15;;;;;;;17.38;60.96;101291.50;4967025;28;124303;-63
2021/09/26 02:07:43;;;;;;;13.77;8.60;;;;;;;17.37;60.96;101284.44;4965206;28;124549;-63
2021/09/26 02:10:14;;;;;;;14.48;8.30;;;;;;;17.36;60.95;101288.94;4965381;28;115245;-63
2021/09/26 02:12:41;;;;;;;13.88;8.75;;;;;;;17.36;60.84;101282.72;4965952;28;115263;-63
2021/09/26 02:15:13;;;;;;;14.02;8.52;;;;;;;17.34;61.02;101284.66;4951269;28;122684;-63
2021/09/26 02:17:43;;;;;;;15.43;8.60;;;;;;;17.32;61.06;101285.59;4937534;28;122851;-63
2021/09/26 02:20:13;;;;;;;14.77;9.23;;;;;;;17.32;60.98;101288.25;4965090;28;114256;-63
2021/09/26 02:22:41;;;;;;;13.75;8.65;;;;;;;17.31;61.15;101286.56;4965467;28;113903;-63
2021/09/26 02:25:10;;;;;;;12.70;8.82;;;;;;;17.31;60.95;101281.22;4967505;28;124329;-63
2021/09/26 02:27:38;;;;;;;12.20;8.45;;;;;;;17.30;61.03;101279.47;4967023;28;124655;-63
2021/09/26 02:30:07;;;;;;;16.60;9.32;;;;;;;17.30;61.03;101284.84;4967779;28;114534;-63
2021/09/26 02:32:34;;;;;;;14.55;9.23;;;;;;;17.26;60.88;101267.25;4963411;28;114773;-63
2021/09/26 02:35:03;;;;;;;14.63;8.93;;;;;;;17.25;60.97;101276.28;4970244;28;124215;-63
2021/09/26 02:37:31;;;;;;;16.13;9.27;;;;;;;17.21;61.21;101272.06;4971980;28;124115;-63
2021/09/26 02:40:00;;;;;;;15.30;8.65;;;;;;;17.20;61.19;101273.03;4965813;28;114294;-64
2021/09/26 02:43:00;;;;;;;14.73;9.65;;;;;;;17.19;61.23;101282.00;4968282;28;113865;-63
2021/09/26 02:45:34;;;;;;;14.43;8.85;;;;;;;17.21;61.29;101280.09;4969322;28;124088;-64
2021/09/26 02:48:11;;;;;;;13.93;9.10;;;;;;;17.23;61.41;101283.53;4955495;28;122742;-63
2021/09/26 02:50:41;;;;;;;13.35;8.82;;;;;;;17.24;61.43;101282.56;4965909;28;114208;-64
2021/09/26 02:53:10;;;;;;;14.45;9.20;;;;;;;17.25;61.53;101284.31;4972540;28;114754;-64
2021/09/26 02:55:39;;;;;;;15.88;8.75;;;;;;;17.27;61.60;101293.09;4964487;28;124285;-64
2021/09/26 02:58:07;;;;;;;15.75;9.70;;;;;;;17.29;61.57;101283.13;4969764;28;124072;-64
2021/09/26 03:00:41;;;;;;;15.82;9.60;;;;;;;17.29;61.78;101288.50;4971766;28;115040;-64
2021/09/26 03:03:14;;;;;;;14.07;8.93;;;;;;;17.31;61.77;101286.56;4966170;28;115569;-64
2021/09/26 03:05:43;;;;;;;16.95;9.55;;;;;;;17.31;61.83;101285.72;4972213;28;123989;-64
2021/09/26 03:08:12;;;;;;;14.80;9.45;;;;;;;17.34;61.90;101285.50;4969778;28;123925;-63
2021/09/26 03:10:40;;;;;;;14.77;9.90;;;;;;;17.37;62.07;101285.31;4953461;28;113997;-63
2021/09/26 03:13:08;;;;;;;14.77;9.63;;;;;;;17.40;62.00;101284.22;4972192;28;114130;-64
2021/09/26 03:15:35;;;;;;;16.67;9.55;;;;;;;17.44;61.97;101280.38;4968541;28;123750;-64
2021/09/26 03:18:03;;;;;;;14.75;9.35;;;;;;;17.47;62.18;101280.19;4970839;28;124637;-64
2021/09/26 03:20:31;;;;;;;17.58;9.90;;;;;;;17.51;62.14;101281.69;4966959;28;114304;-64
2021/09/26 03:22:59;;;;;;;16.23;9.65;;;;;;;17.55;62.18;101277.84;4962915;28;114587;-64
2021/09/26 03:25:26;;;;;;;15.75;9.82;;;;;;;17.59;62.07;101279.34;4970681;28;122956;-64
2021/09/26 03:27:53;;;;;;;13.77;9.40;;;;;;;17.64;62.07;101282.56;4964446;28;123729;-64
2021/09/26 03:30:21;;;;;;;14.98;9.07;;;;;;;17.68;62.18;101277.88;4970193;28;114666;-64
2021/09/26 03:32:48;;;;;;;17.23;10.25;;;;;;;17.71;62.13;101272.31;4968358;28;114066;-63
2021/09/26 03:35:15;;;;;;;15.45;9.77;;;;;;;17.75;62.17;101267.59;4963996;28;124060;-63
2021/09/26 03:37:43;;;;;;;14.60;9.07;;;;;;;17.78;62.15;101267.38;4967390;28;123998;-63
2021/09/26 03:40:13;;;;;;;15.15;9.50;;;;;;;17.82;62.05;101271.56;4965437;28;114743;-64
2021/09/26 03:42:41;;;;;;;16.38;9.65;;;;;;;17.85;62.00;101266.88;4968147;28;113797;-64
2021/09/26 03:45:10;;;;;;;17.85;9.25;;;;;;;17.88;62.19;101268.50;4968074;28;124178;-64
2021/09/26 03:47:37;;;;;;;14.60;9.77;;;;;;;17.89;61.97;101260.38;4951991;28;123796;-64
2021/09/26 03:50:06;;;;;;;15.23;9.77;;;;;;;17.91;62.20;101262.91;4968752;28;114565;-64
2021/09/26 03:52:35;;;;;;;14.05;9.60;;;;;;;17.94;62.10;101265.41;4970336;28;115278;-64
2021/09/26 03:55:07;;;;;;;15.48;9.40;;;;;;;17.97;62.17;101259.84;4970327;28;124567;-64
2021/09/26 03:57:35;;;;;;;18.75;9.30;;;;;;;18.00;61.76;101256.91;4950740;28;122731;-64
2021/09/26 04:00:05;;;;;;;14.48;9.77;;;;;;;18.01;62.11;101253.28;4971654;28;114302;-65
2021/09/26 04:02:37;;;;;;;;;;;;;;;18.01;61.81;101247.94;4973220;28;115007;-64
2021/09/26 04:05:06;;;;;;;15.68;8.82;;;;;;;18.05;61.96;101254.78;4970034;28;123825;-64
2021/09/26 04:07:33;;;;;;;14.80;9.57;;;;;;;18.07;61.89;101257.38;4966754;28;123792;-64
2021/09/26 04:10:00;;;;;;;14.32;9.50;;;;;;;18.11;62.03;101268.72;4969236;28;114337;-63
2021/09/26 04:12:27;;;;;;;15.23;9.35;;;;;;;18.11;62.07;101263.38;4972301;28;114280;-63
2021/09/26 04:14:55;;;;;;;16.33;9.57;;;;;;;18.14;62.11;101273.84;4967844;28;124312;-63
2021/09/26 04:17:22;;;;;;;15.25;10.05;;;;;;;18.15;61.99;101264.88;4967345;28;123862;-63
2021/09/26 04:19:53;;;;;;;15.13;9.20;;;;;;;18.16;61.90;101266.56;4969186;28;114178;-64
2021/09/26 04:22:20;;;;;;;13.90;8.85;;;;;;;18.17;62.04;101270.97;4962822;28;114130;-63
2021/09/26 04:24:48;;;;;;;15.38;8.80;;;;;;;18.18;62.41;101275.38;4963001;28;124101;-63
2021/09/26 04:27:15;;;;;;;13.93;9.15;;;;;;;18.20;62.19;101278.81;4967892;28;124301;-63
2021/09/26 04:29:42;;;;;;;15.30;9.27;;;;;;;18.22;62.15;101276.88;4964707;28;114152;-63
2021/09/26 04:32:09;;;;;;;14.20;9.40;;;;;;;18.22;62.11;101272.38;4973086;28;114412;-63
2021/09/26 04:34:36;;;;;;;15.55;9.20;;;;;;;18.24;62.08;101264.22;4964460;28;123853;-63
2021/09/26 04:37:04;;;;;;;13.85;9.07;;;;;;;18.25;62.24;101265.91;4969685;28;124638;-63
2021/09/26 04:39:31;;;;;;;13.35;8.73;;;;;;;18.28;62.10;101260.34;4944400;28;114277;-64
2021/09/26 04:41:58;;;;;;;14.13;9.00;;;;;;;18.30;62.22;101269.13;4952916;28;114781;-64
2021/09/26 04:44:25;;;;;;;12.82;8.77;;;;;;;18.33;62.16;101274.28;4971704;28;123759;-64
2021/09/26 04:46:53;;;;;;;16.42;9.77;;;;;;;18.35;62.11;101267.00;4972100;28;124866;-64
2021/09/26 04:49:20;;;;;;;14.27;8.75;;;;;;;18.38;62.20;101272.13;4966257;28;114270;-64
2021/09/26 04:51:48;;;;;;;13.65;8.88;;;;;;;18.40;62.10;101272.91;4937667;28;113816;-64
2021/09/26 04:54:15;;;;;;;12.60;8.30;;;;;;;18.42;62.09;101273.66;4966835;28;123858;-65
2021/09/26 04:56:42;;;;;;;14.50;9.52;;;;;;;18.42;62.11;101262.91;4968123;28;123604;-64
2021/09/26 04:59:09;;;;;;;13.80;8.85;;;;;;;18.44;62.23;101265.47;4968866;28;114351;-63
2021/09/26 05:01:36;;;;;;;13.52;9.00;;;;;;;18.46;62.09;101264.41;4967649;28;113906;-65
2021/09/26 05:04:04;;;;;;;16.30;9.38;;;;;;;18.49;61.99;101269.53;4964309;28;124728;-64
2021/09/26 05:06:31;;;;;;;12.93;8.63;;;;;;;18.52;62.07;101262.25;4971152;28;123962;-64
2021/09/26 05:08:58;;;;;;;16.10;9.18;;;;;;;18.54;62.20;101281.78;4965625;28;114565;-65
2021/09/26 05:11:25;;;;;;;14.38;8.65;;;;;;;18.57;62.20;101270.81;4966080;28;114365;-64
2021/09/26 05:13:52;;;;;;;14.15;8.68;;;;;;;18.59;62.05;101268.88;4966880;28;124112;-64
2021/09/26 05:16:19;;;;;;;13.52;9.23;;;;;;;18.62;62.06;101268.66;4971714;28;124586;-64
2021/09/26 05:18:46;;;;;;;12.80;9.18;;;;;;;18.63;62.06;101270.38;4960940;28;114513;-64
2021/09/26 05:21:14;;;;;;;15.07;8.43;;;;;;;18.65;62.12;101276.50;4959114;28;114394;-65
2021/09/26 05:23:41;;;;;;;14.90;8.45;;;;;;;18.65;62.04;101271.13;4970846;28;124733;-65
2021/09/26 05:26:08;;;;;;;13.93;8.95;;;;;;;18.68;62.11;101273.56;4953810;28;123163;-64
2021/09/26 05:28:35;;;;;;;13.88;9.38;;;;;;;18.69;61.94;101278.00;4967763;28;115407;-64
2021/09/26 05:31:03;;;;;;;13.02;8.65;;;;;;;18.71;62.00;101270.69;4968583;28;115048;-64
2021/09/26 05:33:31;;;;;;;16.27;9.05;;;;;;;18.72;62.00;101267.00;4968917;28;124323;-64
2021/09/26 05:35:58;;;;;;;14.40;8.68;;;;;;;18.73;62.01;101268.75;4953200;28;122741;-64
2021/09/26 05:38:26;;;;;;;12.98;8.82;;;;;;;18.74;61.85;101261.53;4941156;28;114161;-64
2021/09/26 05:40:53;;;;;;;14.15;8.80;;;;;;;18.75;61.89;101264.13;4968174;28;114017;-64
2021/09/26 05:43:20;;;;;;;14.25;8.50;;;;;;;18.76;62.00;101271.22;4971133;28;124061;-64
2021/09/26 05:45:48;;;;;;;13.05;9.27;;;;;;;18.78;61.92;101271.97;4964354;28;125338;-64
2021/09/26 05:48:16;;;;;;;11.98;8.93;;;;;;;18.78;61.96;101274.63;4965366;28;114327;-64
2021/09/26 05:50:43;;;;;;;15.60;9.15;;;;;;;18.77;61.86;101278.28;4965652;28;114271;-64
2021/09/26 05:53:11;;;;;;;15.20;8.98;;;;;;;18.77;61.89;101278.28;4966594;28;123865;-64
2021/09/26 05:55:39;;;;;;;13.98;9.15;;;;;;;18.77;61.91;101278.28;4971456;28;123972;-64
2021/09/26 05:58:06;;;;;;;14.52;9.25;;;;;;;18.76;62.11;101281.06;4966514;28;114749;-64
2021/09/26 06:00:33;;;;;;;13.40;9.05;;;;;;;18.76;61.95;101276.59;4962040;28;114413;-64
2021/09/26 06:03:00;;;;;;;13.50;9.25;;;;;;;18.78;62.20;101274.63;4967752;28;123999;-64
2021/09/26 06:05:28;;;;;;;12.27;9.05;;;;;;;18.78;62.05;101269.28;4964880;28;124361;-64
2021/09/26 06:07:55;;;;;;;14.02;8.77;;;;;;;18.81;62.33;101271.75;4964172;28;114269;-63
2021/09/26 06:10:23;;;;;;;13.10;8.63;;;;;;;18.83;61.96;101267.13;4968163;28;115040;-62
2021/09/26 06:12:50;;;;;;;13.82;8.98;;;;;;;18.83;62.24;101267.13;4966724;28;124091;-63
2021/09/26 06:15:17;;;;;;;15.90;9.55;;;;;;;18.86;62.24;101266.06;4964067;28;124758;-64
2021/09/26 06:17:44;;;;;;;13.38;8.75;;;;;;;18.89;62.34;101270.34;4964566;28;115196;-64
2021/09/26 06:20:12;;;;;;;15.65;8.90;;;;;;;18.92;62.35;101264.75;4966183;28;115934;-64
2021/09/26 06:22:40;;;;;;;12.98;9.05;;;;;;;18.96;62.25;101266.22;4962943;28;123904;-64
2021/09/26 06:25:08;;;;;;;14.52;8.73;;;;;;;18.99;62.29;101272.22;4963936;28;123766;-64
2021/09/26 06:27:35;;;;;;;13.80;8.57;;;;;;;19.03;62.37;101262.13;4961832;28;114189;-64
2021/09/26 06:30:05;;;;;;;14.93;9.00;;;;;;;19.07;62.26;101268.97;4965470;28;114852;-64
2021/09/26 06:32:34;;;;;;;14.27;9.10;;;;;;;19.12;62.39;101272.19;4952087;28;123898;-65
2021/09/26 06:35:05;;;;;;;14.05;8.82;;;;;;;19.16;62.29;101283.56;4953378;28;124412;-64
2021/09/26 06:37:33;;;;;;;14.40;9.57;;;;;;;19.20;62.28;101280.53;4962968;28;114813;-64
2021/09/26 06:40:00;;;;;;;14.88;9.23;;;;;;;19.23;62.14;101291.03;4965086;28;114030;-63
2021/09/26 06:42:27;;;;;;;14.13;9.48;;;;;;;19.28;62.19;101292.53;4959649;28;123729;-63
2021/09/26 06:44:55;;;;;;;14.70;9.57;;;;;;;19.31;62.18;101292.28;4970987;28;124255;-64
2021/09/26 06:47:22;;;;;;;14.30;9.27;;;;;;;19.34;62.11;101294.75;4973089;28;114475;-64
2021/09/26 06:49:52;;;;;;;14.40;8.60;;;;;;;19.38;62.21;101293.53;4949671;28;113266;-64
2021/09/26 06:52:19;;;;;;;15.05;9.55;;;;;;;19.38;62.19;101294.41;4964312;28;124098;-64
2021/09/26 06:54:47;;;;;;;13.48;9.23;;;;;;;19.40;62.10;101296.97;4964591;28;124066;-63
2021/09/26 06:57:14;;;;;;;15.02;9.18;;;;;;;19.42;62.13;101300.38;4949759;28;113467;-64
2021/09/26 06:59:41;;;;;;;13.73;9.65;;;;;;;19.45;62.29;101294.78;4964960;28;114140;-64
2021/09/26 07:02:09;;;;;;;15.05;9.55;;;;;;;19.49;62.36;101296.28;4963946;28;122977;-64
2021/09/26 07:04:36;;;;;;;16.25;9.50;;;;;;;19.52;62.48;101301.41;4955679;28;123594;-64
2021/09/26 07:07:03;;;;;;;16.15;9.60;;;;;;;19.56;62.22;101302.91;4970570;28;115192;-64
2021/09/26 07:09:31;;;;;;;15.23;9.30;;;;;;;19.62;62.53;101307.81;4956905;28;115055;-64
2021/09/26 07:11:58;;;;;;;14.27;9.68;;;;;;;19.69;62.49;101313.59;4969961;28;124055;-63
2021/09/26 07:14:25;;;;;;;16.90;9.52;;;;;;;19.78;62.48;101312.06;4968170;28;124562;-64
2021/09/26 07:16:52;;;;;;;15.80;9.38;;;;;;;19.84;62.54;101322.34;4969654;28;113672;-64
2021/09/26 07:19:20;;;;;;;14.52;9.23;;;;;;;19.92;62.63;101325.28;4967611;28;114514;-64
2021/09/26 07:21:48;;;;;;;15.10;9.38;;;;;;;20.03;62.71;101319.09;4950733;28;123084;-64
2021/09/26 07:24:15;;;;;;;15.57;9.93;;;;;;;20.13;62.65;101316.53;4945624;28;123763;-64
2021/09/26 07:26:42;;;;;;;15.25;9.77;;;;;;;20.21;62.46;101319.47;4968780;28;114123;-65
2021/09/26 07:29:10;;;;;;;14.77;9.73;;;;;;;20.31;62.45;101315.09;4961270;28;114130;-64
2021/09/26 07:31:37;;;;;;;14.40;9.43;;;;;;;20.40;62.55;101322.44;4968222;28;123952;-65
2021/09/26 07:34:05;;;;;;;13.63;9.50;;;;;;;20.52;62.52;101317.06;4972317;28;124182;-65
2021/09/26 07:36:32;;;;;;;13.15;9.32;;;;;;;20.66;62.50;101319.53;4976768;28;114675;-65
2021/09/26 07:39:00;;;;;;;15.13;10.35;;;;;;;20.77;62.39;101316.81;4970307;28;114177;-65
2021/09/26 07:41:28;;;;;;;12.88;9.57;;;;;;;20.90;62.39;101332.00;4970296;28;123804;-65
2021/09/26 07:43:55;;;;;;;12.90;9.02;;;;;;;21.02;62.36;101341.78;4972922;28;124333;-65
2021/09/26 07:46:23;;;;;;;13.70;9.63;;;;;;;21.12;62.25;101337.34;4972167;28;114995;-65
2021/09/26 07:48:50;;;;;;;14.02;8.85;;;;;;;21.25;62.12;101347.09;4971401;28;113893;-65
2021/09/26 07:51:17;;;;;;;14.80;9.52;;;;;;;21.36;62.20;101355.16;4966729;28;124027;-65
2021/09/26 07:53:44;;;;;;;15.88;9.40;;;;;;;21.47;62.27;101347.06;4972003;28;124382;-65
2021/09/26 07:56:12;;;;;;;13.52;8.68;;;;;;;21.57;61.90;101345.34;4959081;28;115286;-65
2021/09/26 07:58:39;;;;;;;11.80;8.68;;;;;;;21.68;62.07;101338.16;4962895;28;115668;-64
2021/09/26 08:01:06;;;;;;;13.70;8.73;;;;;;;21.79;62.03;101330.03;4950920;28;123721;-64
2021/09/26 08:03:34;;;;;;;11.85;8.43;;;;;;;21.91;61.84;101337.09;4963159;28;123771;-64
2021/09/26 08:06:02;;;;;;;12.55;8.82;;;;;;;22.02;61.69;101324.50;4956805;28;114573;-64
2021/09/26 08:08:29;;;;;;;11.45;8.13;;;;;;;22.12;61.60;101314.66;4965355;28;114239;-64
2021/09/26 08:10:56;;;;;;;12.05;8.57;;;;;;;22.22;61.64;101326.34;4968401;28;124700;-64
2021/09/26 08:13:23;;;;;;;13.30;8.25;;;;;;;22.31;61.52;101330.97;4968502;28;123970;-64
2021/09/26 08:15:51;;;;;;;12.38;8.82;;;;;;;22.41;61.55;101336.44;4965911;28;115043;-64
2021/09/26 08:18:18;;;;;;;13.95;9.20;;;;;;;22.53;61.50;101329.13;4972614;28;114115;-63
2021/09/26 08:20:45;;;;;;;12.38;8.70;;;;;;;22.65;61.37;101338.81;4972895;28;124127;-64
2021/09/26 08:23:12;;;;;;;12.30;8.63;;;;;;;22.76;61.36;101339.72;4959581;28;124324;-65
2021/09/26 08:25:39;;;;;;;13.38;8.65;;;;;;;22.88;61.24;101333.22;4973951;28;114502;-65
2021/09/26 08:28:07;;;;;;;14.82;9.52;;;;;;;23.00;61.15;101340.22;4956341;28;113605;-65
2021/09/26 08:30:34;;;;;;;12.50;8.82;;;;;;;23.10;60.76;101346.53;4971436;28;124236;-65
2021/09/26 08:33:01;;;;;;;12.18;8.82;;;;;;;23.18;60.68;101345.00;4971091;28;125015;-65
2021/09/26 08:35:28;;;;;;;11.95;8.60;;;;;;;23.24;60.45;101342.56;4972286;28;114212;-65
2021/09/26 08:37:56;;;;;;;11.60;8.45;;;;;;;23.32;60.51;101342.75;4973620;28;114663;-65
2021/09/26 08:40:24;;;;;;;12.25;8.32;;;;;;;23.43;60.57;101349.88;4967149;28;124440;-64
2021/09/26 08:42:52;;;;;;;14.25;8.68;;;;;;;23.55;60.47;101352.44;4968311;28;123075;-64
2021/09/26 08:45:19;;;;;;;11.80;8.52;;;;;;;23.63;60.25;101350.72;4954228;28;115859;-64
2021/09/26 08:47:46;;;;;;;14.02;9.05;;;;;;;23.73;60.29;101339.91;4958675;28;115703;-64
2021/09/26 08:50:17;;;;;;;11.25;8.45;;;;;;;23.83;59.97;101351.63;4972331;28;124491;-64
2021/09/26 08:52:45;;;;;;;12.02;8.57;;;;;;;23.92;59.85;101357.16;4956569;28;123949;-64
2021/09/26 08:55:14;;;;;;;11.93;8.23;;;;;;;24.01;59.84;101361.72;4971946;28;114599;-64
2021/09/26 08:57:42;;;;;;;11.82;8.10;;;;;;;24.10;59.63;101363.53;4970671;28;113850;-64
2021/09/26 09:00:11;;;;;;;13.63;8.45;;;;;;;24.21;59.44;101360.69;4971731;28;124048;-64
2021/09/26 09:02:38;;;;;;;13.02;8.80;;;;;;;24.28;59.13;101345.56;4972261;28;124462;-65
2021/09/26 09:05:25;;;;;;;12.50;8.75;;;;;;;24.33;58.85;101352.38;4951674;28;114636;-65
2021/09/26 09:08:12;;;;;;;11.30;8.57;;;;;;;24.36;58.70;101366.50;4955519;28;114051;-65
2021/09/26 09:10:51;;;;;;;11.95;8.55;;;;;;;24.42;58.87;101362.34;4962144;28;124567;-65
2021/09/26 09:13:27;;;;;;;11.38;8.32;;;;;;;24.49;58.69;101360.75;4966487;28;123797;-66
2021/09/26 09:16:15;;;;;;;12.20;8.75;;;;;;;24.56;58.51;101353.75;4965263;28;114390;-65
2021/09/26 09:18:55;;;;;;;10.57;7.97;;;;;;;24.63;58.39;101360.28;4951714;28;114067;-65
2021/09/26 09:21:33;;;;;;;11.50;8.30;;;;;;;24.71;58.33;101362.25;4952966;28;123973;-65
2021/09/26 09:24:28;;;;;;;13.02;8.18;;;;;;;24.82;58.39;101363.94;4937824;28;123919;-65
2021/09/26 09:26:55;;;;;;;12.63;8.27;;;;;;;24.92;58.44;101372.00;4970608;28;114141;-65
2021/09/26 09:29:24;;;;;;;11.73;7.75;;;;;;;25.01;57.97;101380.09;4954573;28;114089;-65
2021/09/26 09:31:57;;;;;;;12.93;9.00;;;;;;;25.06;57.84;101383.22;4972494;28;124461;-65
2021/09/26 09:34:31;;;;;;;11.45;8.57;;;;;;;25.11;57.38;101379.19;4969404;28;124154;-65
2021/09/26 09:37:28;;;;;;;12.33;8.33;;;;;;;25.12;57.58;101375.47;4969846;28;115541;-65
2021/09/26 09:40:08;;;;;;;10.85;8.15;;;;;;;25.16;57.28;101366.03;4947236;28;115009;-64
2021/09/26 09:42:40;;;;;;;11.73;8.15;;;;;;;25.22;57.37;101370.84;4972038;28;124670;-65
2021/09/26 09:45:23;;;;;;;10.25;7.65;;;;;;;25.26;56.68;101361.47;4970561;28;124633;-65
2021/09/26 09:48:14;;;;;;;11.32;7.90;;;;;;;25.26;56.83;101364.16;4957929;28;114569;-65
2021/09/26 09:50:45;;;;;;;12.25;8.55;;;;;;;25.27;56.84;101379.41;4970478;28;113821;-65
2021/09/26 09:53:33;;;;;;;12.40;8.60;;;;;;;25.27;56.60;101384.84;4972408;28;124176;-65
2021/09/26 09:56:06;;;;;;;11.73;7.95;;;;;;;25.27;56.51;101386.69;4968320;28;123775;-65
2021/09/26 09:58:42;;;;;;;10.13;7.75;;;;;;;25.25;56.43;101387.69;4961652;28;114151;-65
2021/09/26 10:01:15;;;;;;;11.00;8.13;;;;;;;25.25;56.60;101376.84;4970205;28;114403;-65
2021/09/26 10:03:47;;;;;;;11.65;8.20;;;;;;;25.26;56.53;101385.84;4969278;28;124075;-65
2021/09/26 10:06:23;;;;;;;11.63;8.35;;;;;;;25.22;56.15;101387.09;4967947;28;124161;-65
2021/09/26 10:08:56;;;;;;;11.20;8.35;;;;;;;25.21;56.28;101380.00;4960550;28;114329;-65
2021/09/26 10:11:26;;;;;;;12.70;8.33;;;;;;;25.21;56.39;101385.41;4967516;28;113985;-65
2021/09/26 10:13:55;;;;;;;12.80;9.10;;;;;;;25.22;56.26;101378.97;4954646;28;123003;-65
2021/09/26 10:16:22;;;;;;;14.27;8.60;;;;;;;25.27;56.47;101384.84;4957361;28;123793;-65
2021/09/26 10:18:51;;;;;;;11.43;8.45;;;;;;;25.35;56.72;101387.63;4970122;28;114520;-66
2021/09/26 10:21:19;;;;;;;12.15;7.68;;;;;;;25.45;56.11;101388.44;4956465;28;114363;-65
2021/09/26 10:23:48;;;;;;;11.98;8.15;;;;;;;25.55;56.43;101382.94;4971604;28;124401;-65
2021/09/26 10:26:19;;;;;;;10.55;7.97;;;;;;;25.63;56.22;101384.88;4971315;28;124604;-65
2021/09/26 10:28:50;;;;;;;11.35;8.00;;;;;;;25.75;55.71;101389.06;4965615;28;115079;-65
2021/09/26 10:31:18;;;;;;;10.32;7.90;;;;;;;25.84;55.67;101388.16;4969941;28;115021;-65
2021/09/26 10:33:47;;;;;;;11.60;7.85;;;;;;;25.93;55.26;101388.25;4961578;28;123874;-65
2021/09/26 10:36:22;;;;;;;9.88;7.40;;;;;;;26.01;55.05;101382.88;4970726;28;124599;-65
2021/09/26 10:38:51;;;;;;;10.32;7.70;;;;;;;26.05;55.11;101384.28;4968707;28;114419;-65
2021/09/26 10:41:19;;;;;;;12.02;7.60;;;;;;;26.14;55.04;101383.31;4969724;28;113982;-64
2021/09/26 10:43:46;;;;;;;9.60;6.95;;;;;;;26.21;54.70;101383.53;4968542;28;124188;-64
2021/09/26 10:46:26;;;;;;;10.45;7.70;;;;;;;26.27;54.61;101387.50;4971580;28;124553;-65
2021/09/26 10:48:56;;;;;;;10.35;7.28;;;;;;;26.34;54.61;101383.13;4970770;28;114452;-65
2021/09/26 10:51:53;;;;;;;11.20;7.10;;;;;;;26.43;54.37;101398.47;4969968;28;114170;-65
2021/09/26 10:54:34;;;;;;;8.82;6.55;;;;;;;26.52;54.34;101402.94;4969848;28;124676;-65
2021/09/26 10:57:04;;;;;;;9.40;6.80;;;;;;;26.61;53.95;101396.56;4963945;28;123851;-65
2021/09/26 10:59:42;;;;;;;8.57;6.63;;;;;;;26.72;54.08;101397.31;4956401;28;114126;-65
2021/09/26 11:02:21;;;;;;;9.15;6.75;;;;;;;26.80;53.89;101390.06;4955523;28;114854;-65
2021/09/26 11:04:51;;;;;;;10.70;7.20;;;;;;;26.91;53.79;101397.06;4972072;28;124158;-65
2021/09/26 11:07:20;;;;;;;9.77;7.22;;;;;;;26.95;53.41;101395.72;4965953;28;124978;-64
2021/09/26 11:09:51;;;;;;;10.95;7.15;;;;;;;27.03;53.52;101399.47;4962670;28;114357;-65
2021/09/26 11:12:42;;;;;;;10.30;7.28;;;;;;;27.11;53.37;101396.81;4968624;28;113109;-65
2021/09/26 11:15:15;;;;;;;9.55;6.70;;;;;;;27.18;52.77;101403.28;4968310;28;124081;-65
2021/09/26 11:17:54;;;;;;;9.15;6.80;;;;;;;27.23;52.85;101403.66;4967913;28;123808;-65
2021/09/26 11:20:30;;;;;;;8.63;6.50;;;;;;;27.28;52.70;101398.59;4966709;28;115666;-64
2021/09/26 11:23:06;;;;;;;11.18;6.57;;;;;;;27.33;52.50;101390.81;4962212;28;116363;-64